Time;durP1;ratioP1;P1;durP2;ratioP2;P2;SDS_P1;SDS_P2;PMS_P1;PMS_P2;Temp;Humidity;BMP_temperature;BMP_pressure;BME280_temperature;BME280_humidity;BME280_pressure;Samples;Min_cycle;Max_cycle;Signal;HPM_P1;HPM_P2
2022/05/29 00:00:55;;;;;;;91.85;55.95;;;26.80;99.90;;;;;;5056349;28;20029;-59
2022/05/29 00:03:22;;;;;;;107.47;66.30;;;26.80;99.90;;;;;;5054945;28;20029;-60
2022/05/29 00:05:49;;;;;;;90.88;60.00;;;26.90;99.90;;;;;;5055848;28;20028;-60
2022/05/29 00:08:30;;;;;;;200.98;139.35;;;26.80;99.90;;;;;;5055731;28;20461;-58
2022/05/29 00:10:59;;;;;;;143.38;97.95;;;26.80;99.90;;;;;;5056599;28;20040;-59
2022/05/29 00:13:26;;;;;;;120.40;75.03;;;26.80;99.90;;;;;;5055791;28;20430;-61
2022/05/29 00:15:53;;;;;;;103.95;62.38;;;26.90;99.90;;;;;;5061055;28;20052;-59
2022/05/29 00:18:20;;;;;;;113.80;67.68;;;26.90;99.90;;;;;;5062945;28;20055;-64
2022/05/29 00:20:51;;;;;;;105.32;69.72;;;26.80;99.90;;;;;;5075553;28;20034;-59
2022/05/29 00:23:19;;;;;;;126.32;78.40;;;26.90;99.90;;;;;;5075574;28;20078;-63
2022/05/29 00:25:48;;;;;;;114.47;75.22;;;27.00;99.90;;;;;;5074042;28;20060;-59
2022/05/29 00:28:15;;;;;;;115.88;76.03;;;27.00;99.90;;;;;;5054591;28;20017;-61
2022/05/29 00:30:41;;;;;;;118.28;86.10;;;27.00;99.90;;;;;;5055775;28;20029;-61
2022/05/29 00:33:09;;;;;;;134.07;96.22;;;27.00;99.90;;;;;;5050581;28;20029;-62
2022/05/29 00:35:39;;;;;;;154.88;110.70;;;27.10;99.90;;;;;;5060539;28;20033;-61
2022/05/29 00:38:10;;;;;;;144.20;101.25;;;27.10;99.90;;;;;;5075828;28;20025;-60
2022/05/29 00:40:42;;;;;;;157.43;109.72;;;27.20;99.90;;;;;;5074725;28;20510;-60
2022/05/29 00:43:09;;;;;;;136.07;96.80;;;27.20;99.90;;;;;;5067387;28;20029;-61
2022/05/29 00:45:48;;;;;;;120.07;85.60;;;27.30;99.90;;;;;;5065087;28;20029;-61
2022/05/29 00:48:17;;;;;;;117.13;86.75;;;27.40;99.90;;;;;;5073054;28;20035;-61
2022/05/29 00:50:46;;;;;;;111.60;80.82;;;27.50;99.90;;;;;;5055203;28;20150;-60
2022/05/29 00:53:14;;;;;;;111.57;84.70;;;27.50;99.90;;;;;;5067236;28;20448;-61
2022/05/29 00:55:46;;;;;;;124.55;86.47;;;27.50;99.90;;;;;;5075897;28;20063;-63
2022/05/29 00:58:13;;;;;;;;;;;27.60;99.90;;;;;;5075849;28;20029;-65
2022/05/29 01:00:40;;;;;;;120.57;86.82;;;27.60;99.90;;;;;;5074814;28;19908;-64
2022/05/29 01:03:07;;;;;;;154.05;108.53;;;27.60;99.90;;;;;;5074941;28;20196;-64
2022/05/29 01:05:35;;;;;;;147.48;108.18;;;27.60;99.90;;;;;;5075419;28;20024;-65
2022/05/29 01:08:24;;;;;;;134.68;97.07;;;27.60;99.90;;;;;;5070044;28;20047;-65
2022/05/29 01:10:52;;;;;;;82.45;55.13;;;27.90;99.90;;;;;;5068346;28;20044;-65
2022/05/29 01:13:48;;;;;;;86.22;58.85;;;28.10;99.90;;;;;;5062455;28;20035;-65
2022/05/29 01:16:34;;;;;;;88.53;62.22;;;28.10;99.90;;;;;;5066514;28;20048;-65
2022/05/29 01:19:02;;;;;;;82.60;60.70;;;28.10;99.90;;;;;;5054531;28;20021;-65
2022/05/29 01:21:47;;;;;;;87.22;61.53;;;28.10;99.90;;;;;;5054901;28;20104;-66
2022/05/29 01:24:43;;;;;;;86.57;61.25;;;28.20;99.90;;;;;;5067584;28;20032;-65
2022/05/29 01:27:27;;;;;;;80.20;59.58;;;28.20;99.90;;;;;;5075061;28;20028;-65
2022/05/29 01:30:04;;;;;;;77.28;56.15;;;28.40;99.90;;;;;;5062050;28;20017;-65
2022/05/29 01:32:38;;;;;;;85.35;60.88;;;28.50;99.90;;;;;;5066334;28;20068;-64
2022/05/29 01:35:22;;;;;;;129.57;86.07;;;28.50;99.90;;;;;;5074295;28;20473;-64
2022/05/29 01:38:00;;;;;;;90.50;63.97;;;28.60;99.90;;;;;;5071796;28;20100;-64
2022/05/29 01:40:42;;;;;;;80.35;58.17;;;28.70;99.90;;;;;;5072758;28;20114;-65
2022/05/29 01:43:28;;;;;;;86.57;61.05;;;28.70;99.90;;;;;;5078095;28;20332;-65
2022/05/29 01:46:02;;;;;;;91.55;66.78;;;28.70;99.90;;;;;;5075757;28;20024;-65
2022/05/29 01:48:38;;;;;;;91.20;67.03;;;28.80;99.90;;;;;;5077692;28;20424;-64
2022/05/29 01:51:22;;;;;;;83.43;59.30;;;28.80;99.90;;;;;;5074680;28;20028;-64
2022/05/29 01:53:59;;;;;;;52.58;35.97;;;28.90;99.90;;;;;;5073506;28;20021;-64
2022/05/29 01:56:35;;;;;;;75.93;49.00;;;29.10;99.90;;;;;;5073346;28;20020;-64
2022/05/29 01:59:11;;;;;;;81.32;54.50;;;29.20;99.90;;;;;;5062610;28;20025;-66
2022/05/29 02:01:44;;;;;;;81.88;57.50;;;29.20;99.90;;;;;;5070424;28;20041;-64
2022/05/29 02:04:17;;;;;;;47.95;31.63;;;29.30;99.90;;;;;;5072836;28;20081;-64
2022/05/29 02:09:38;;;;;;;55.30;40.42;;;29.40;99.90;;;;;;5061286;28;20040;-64
2022/05/29 02:12:13;;;;;;;52.42;36.35;;;29.30;99.90;;;;;;5073244;28;20036;-65
2022/05/29 02:14:44;;;;;;;56.63;37.63;;;29.30;99.90;;;;;;5072737;28;20508;-64
2022/05/29 02:17:15;;;;;;;56.63;38.55;;;29.50;99.90;;;;;;5072612;28;20035;-63
2022/05/29 02:19:48;;;;;;;59.00;39.23;;;29.60;99.90;;;;;;5071215;28;20078;-64
2022/05/29 02:22:25;;;;;;;58.92;34.97;;;29.60;99.90;;;;;;5069480;28;20039;-65
2022/05/29 02:24:56;;;;;;;45.58;28.90;;;29.60;99.90;;;;;;5072545;28;20028;-65
2022/05/29 02:27:26;;;;;;;43.55;26.38;;;29.60;99.90;;;;;;5074677;28;20029;-65
2022/05/29 02:29:56;;;;;;;45.58;28.83;;;29.60;99.90;;;;;;5058940;28;20067;-65
2022/05/29 02:32:51;;;;;;;49.70;29.70;;;29.60;99.90;;;;;;5071697;28;20489;-67
2022/05/29 02:35:17;;;;;;;29.90;20.55;;;29.60;99.90;;;;;;5057326;28;20025;-66
2022/05/29 02:38:03;;;;;;;48.28;30.75;;;29.60;99.90;;;;;;5058650;28;20021;-64
2022/05/29 02:40:34;;;;;;;49.60;23.77;;;29.80;99.90;;;;;;5075166;28;20490;-66
2022/05/29 02:43:20;;;;;;;33.22;19.83;;;29.90;99.90;;;;;;5076791;28;20032;-59
2022/05/29 02:45:56;;;;;;;27.98;18.95;;;30.00;99.90;;;;;;5062478;28;20033;-60
2022/05/29 02:48:43;;;;;;;31.58;19.92;;;30.00;99.90;;;;;;5063578;28;20500;-59
2022/05/29 02:51:44;;;;;;;49.38;22.23;;;30.00;99.90;;;;;;5046112;28;20128;-59
2022/05/29 02:54:20;;;;;;;36.15;18.48;;;30.00;99.90;;;;;;5038482;28;20037;-61
2022/05/29 02:56:47;;;;;;;33.03;19.33;;;30.10;99.90;;;;;;5054573;28;20024;-61
2022/05/29 02:59:14;;;;;;;37.38;21.38;;;30.10;99.90;;;;;;5050169;28;20030;-60
2022/05/29 03:01:47;;;;;;;31.48;18.70;;;30.30;99.90;;;;;;5034550;28;20030;-61
2022/05/29 03:04:23;;;;;;;25.92;19.85;;;30.40;99.90;;;;;;5046676;28;20481;-60
2022/05/29 03:06:57;;;;;;;27.63;20.40;;;30.50;99.90;;;;;;5054313;28;20036;-60
2022/05/29 03:09:33;;;;;;;26.40;20.30;;;30.50;99.90;;;;;;5049395;28;20141;-61
2022/05/29 03:12:01;;;;;;;32.53;18.95;;;30.50;99.90;;;;;;5042295;28;20079;-60
2022/05/29 03:15:08;;;;;;;28.33;19.65;;;30.50;99.90;;;;;;5034416;28;20347;-61
2022/05/29 03:17:45;;;;;;;36.38;23.48;;;30.50;99.90;;;;;;4994209;28;20043;-62
2022/05/29 03:20:19;;;;;;;37.53;21.20;;;30.60;99.90;;;;;;4994618;28;20089;-59
2022/05/29 03:22:58;;;;;;;30.13;19.17;;;30.60;99.90;;;;;;4987189;28;20113;-60
2022/05/29 03:25:33;;;;;;;34.63;19.58;;;30.70;99.90;;;;;;4995171;28;20018;-62
2022/05/29 03:28:02;;;;;;;36.90;20.85;;;30.80;99.90;;;;;;4994338;28;20167;-64
2022/05/29 03:30:39;;;;;;;33.97;20.67;;;30.90;99.90;;;;;;4994215;28;20026;-65
2022/05/29 03:33:09;;;;;;;39.95;20.50;;;31.00;99.90;;;;;;4994855;28;20030;-66
2022/05/29 03:35:51;;;;;;;40.17;23.30;;;31.00;99.90;;;;;;4993228;28;20088;-66
2022/05/29 03:38:18;;;;;;;43.83;22.43;;;31.10;99.90;;;;;;4988971;28;20039;-66
2022/05/29 03:40:45;;;;;;;54.95;38.25;;;31.10;99.90;;;;;;4994654;28;20133;-66
2022/05/29 03:43:12;;;;;;;38.15;23.05;;;31.10;99.90;;;;;;4994787;28;20030;-64
2022/05/29 03:45:38;;;;;;;34.85;21.33;;;31.00;99.90;;;;;;4997027;28;20038;-66
2022/05/29 03:48:06;;;;;;;36.88;23.05;;;31.20;99.90;;;;;;5022628;28;20037;-64
2022/05/29 03:50:34;;;;;;;26.40;19.88;;;31.20;99.90;;;;;;5033292;28;20037;-66
2022/05/29 03:53:03;;;;;;;27.33;20.08;;;31.30;99.90;;;;;;5034669;28;20390;-66
2022/05/29 03:55:30;;;;;;;26.80;18.35;;;31.40;99.80;;;;;;5069403;28;20037;-65
2022/05/29 03:57:57;;;;;;;28.85;21.33;;;31.50;98.70;;;;;;5064215;28;20017;-65
2022/05/29 04:00:25;;;;;;;40.53;25.75;;;31.60;97.60;;;;;;5056136;28;20021;-66
2022/05/29 04:02:52;;;;;;;27.73;19.95;;;31.70;98.10;;;;;;5075430;28;20033;-67
2022/05/29 04:05:21;;;;;;;31.20;17.73;;;31.60;96.70;;;;;;5074993;28;20681;-67
2022/05/29 04:13:28;;;;;;;25.92;15.40;;;31.70;96.20;;;;;;5063394;28;20029;-70
2022/05/29 04:15:54;;;;;;;19.63;14.45;;;31.80;95.00;;;;;;5075627;28;20028;-70
2022/05/29 04:18:22;;;;;;;20.83;14.82;;;31.80;94.70;;;;;;5069233;28;20036;-60
2022/05/29 04:20:53;;;;;;;18.80;14.63;;;31.80;95.60;;;;;;5057898;28;20478;-63
2022/05/29 04:23:20;;;;;;;20.80;15.35;;;31.80;95.90;;;;;;5056207;28;20036;-62
2022/05/29 04:25:46;;;;;;;25.10;15.32;;;31.80;93.80;;;;;;5064922;28;20032;-63
2022/05/29 04:28:13;;;;;;;20.33;13.57;;;31.90;95.80;;;;;;5076912;28;20103;-64
2022/05/29 04:30:40;;;;;;;21.85;13.73;;;32.00;95.30;;;;;;5064235;28;20420;-63
2022/05/29 04:33:07;;;;;;;28.25;15.63;;;32.00;96.20;;;;;;5074582;28;20088;-63
2022/05/29 04:35:41;;;;;;;27.85;19.27;;;32.00;95.10;;;;;;5073475;28;20178;-62
2022/05/29 04:38:09;;;;;;;27.33;18.38;;;32.10;94.70;;;;;;5066624;28;20025;-64
2022/05/29 04:40:39;;;;;;;25.70;16.83;;;32.30;94.00;;;;;;5066270;28;20041;-62
2022/05/29 04:43:06;;;;;;;20.27;14.80;;;32.40;92.80;;;;;;5064511;28;20025;-62
2022/05/29 04:45:34;;;;;;;19.48;13.20;;;32.40;92.20;;;;;;5061046;28;20031;-61
2022/05/29 04:48:00;;;;;;;17.15;12.57;;;32.20;93.50;;;;;;5067033;28;20031;-64
2022/05/29 04:50:27;;;;;;;27.65;21.63;;;32.20;93.30;;;;;;5068826;28;20028;-65
2022/05/29 04:52:54;;;;;;;31.23;24.20;;;32.20;92.50;;;;;;5071173;28;20023;-64
2022/05/29 04:55:21;;;;;;;20.67;13.75;;;32.30;93.40;;;;;;5068732;28;20103;-64
2022/05/29 04:57:47;;;;;;;22.10;13.60;;;32.40;93.30;;;;;;5072837;28;20040;-64
2022/05/29 05:00:15;;;;;;;24.88;13.23;;;32.50;92.00;;;;;;5068324;28;20108;-63
2022/05/29 05:02:44;;;;;;;19.65;13.85;;;32.50;91.80;;;;;;5068134;28;20040;-63
2022/05/29 05:05:13;;;;;;;18.70;12.82;;;32.60;91.10;;;;;;5063293;28;20033;-63
2022/05/29 05:07:40;;;;;;;23.42;13.48;;;32.70;90.80;;;;;;5063790;28;20118;-63
2022/05/29 05:10:11;;;;;;;16.92;12.77;;;32.60;90.50;;;;;;5065204;28;20028;-63
2022/05/29 05:12:38;;;;;;;19.70;12.10;;;32.50;90.80;;;;;;5076332;28;20073;-63
2022/05/29 05:15:06;;;;;;;17.70;12.23;;;32.40;91.20;;;;;;5073121;28;20020;-65
2022/05/29 05:17:33;;;;;;;17.95;11.80;;;32.50;90.70;;;;;;5070541;28;20464;-67
2022/05/29 05:20:00;;;;;;;19.42;12.65;;;32.50;92.00;;;;;;5076538;28;20134;-67
2022/05/29 05:22:27;;;;;;;20.77;13.45;;;32.70;91.00;;;;;;5077260;28;20078;-65
2022/05/29 05:24:53;;;;;;;20.17;13.10;;;32.70;89.10;;;;;;5073054;28;20124;-66
2022/05/29 05:27:20;;;;;;;19.15;12.60;;;32.80;90.20;;;;;;5068595;28;20380;-67
2022/05/29 05:29:47;;;;;;;20.00;11.95;;;32.90;90.80;;;;;;5069419;28;20320;-65
2022/05/29 05:32:13;;;;;;;19.40;12.73;;;32.80;89.80;;;;;;5054247;28;20032;-63
2022/05/29 05:34:41;;;;;;;16.75;11.73;;;32.80;89.90;;;;;;5065965;28;20052;-66
2022/05/29 05:37:10;;;;;;;20.75;12.52;;;32.80;90.00;;;;;;5066626;28;20025;-64
2022/05/29 05:39:37;;;;;;;21.10;13.65;;;32.80;90.60;;;;;;5070181;28;20309;-65
2022/05/29 05:42:05;;;;;;;19.08;12.65;;;32.70;90.10;;;;;;5064751;28;20045;-64
2022/05/29 05:44:32;;;;;;;19.83;10.77;;;32.80;90.20;;;;;;5060330;28;20064;-67
2022/05/29 05:46:59;;;;;;;17.92;11.68;;;32.90;90.30;;;;;;5087928;23;20056;-64
2022/05/29 05:49:25;;;;;;;53.58;43.05;;;33.00;88.50;;;;;;5062888;28;20017;-66
2022/05/29 05:51:54;;;;;;;30.88;18.27;;;33.00;89.20;;;;;;5071987;28;20389;-65
2022/05/29 05:54:20;;;;;;;25.27;14.00;;;33.00;89.50;;;;;;5069176;28;20036;-67
2022/05/29 05:56:51;;;;;;;15.93;11.35;;;33.30;87.60;;;;;;5070549;28;20028;-65
2022/05/29 05:59:18;;;;;;;42.05;28.80;;;33.40;85.50;;;;;;5050939;28;20127;-65
2022/05/29 06:01:45;;;;;;;27.70;17.48;;;33.40;86.90;;;;;;5049281;28;20029;-69
2022/05/29 06:04:12;;;;;;;24.67;14.68;;;33.40;88.20;;;;;;5063380;28;20038;-66
2022/05/29 06:06:39;;;;;;;20.52;14.32;;;33.50;85.60;;;;;;5064501;28;20028;-65
2022/05/29 06:09:05;;;;;;;26.30;14.20;;;33.50;85.10;;;;;;5064244;28;20108;-66
2022/05/29 06:11:33;;;;;;;45.88;32.05;;;33.50;85.60;;;;;;5059618;28;20478;-64
2022/05/29 06:14:00;;;;;;;21.50;14.15;;;33.60;85.00;;;;;;5041455;28;20037;-65
2022/05/29 06:16:26;;;;;;;25.10;15.52;;;33.50;84.50;;;;;;5039528;28;20044;-64
2022/05/29 06:18:53;;;;;;;20.60;12.73;;;33.50;86.70;;;;;;5040376;28;20021;-65
2022/05/29 06:21:20;;;;;;;19.33;11.02;;;33.50;85.40;;;;;;5046185;28;20029;-64
2022/05/29 06:23:47;;;;;;;14.52;11.43;;;33.50;84.00;;;;;;5035273;28;20127;-64
2022/05/29 06:26:14;;;;;;;20.98;11.50;;;33.50;84.80;;;;;;5051607;28;20036;-64
2022/05/29 06:28:42;;;;;;;21.83;13.30;;;33.60;84.00;;;;;;5044225;28;20033;-65
2022/05/29 06:31:11;;;;;;;43.50;26.73;;;33.70;82.50;;;;;;5040068;28;20022;-64
2022/05/29 06:33:38;;;;;;;63.63;39.50;;;33.70;82.70;;;;;;5038570;28;20104;-66
2022/05/29 06:36:10;;;;;;;94.53;69.90;;;33.70;83.40;;;;;;5039458;28;20028;-64
2022/05/29 06:38:37;;;;;;;60.47;49.60;;;33.80;83.10;;;;;;5045645;28;20104;-65
2022/05/29 06:41:07;;;;;;;33.28;23.08;;;33.70;81.50;;;;;;5049713;28;20116;-66
2022/05/29 06:43:34;;;;;;;22.52;14.48;;;33.60;82.40;;;;;;5039025;28;20032;-66
2022/05/29 06:46:02;;;;;;;15.82;11.75;;;33.40;84.20;;;;;;5042131;28;20032;-65
2022/05/29 06:48:31;;;;;;;17.15;10.02;;;33.30;83.70;;;;;;5032693;28;20474;-65
2022/05/29 06:51:04;;;;;;;49.10;31.08;;;33.20;82.40;;;;;;5050193;28;20035;-65
2022/05/29 06:53:31;;;;;;;48.88;43.60;;;33.10;84.10;;;;;;5046967;28;20104;-65
2022/05/29 06:55:58;;;;;;;27.83;21.67;;;33.00;82.60;;;;;;5032722;28;20021;-66
2022/05/29 06:58:24;;;;;;;24.05;13.00;;;33.00;84.00;;;;;;5045728;28;20025;-66
2022/05/29 07:08:59;;;;;;;35.45;28.10;;;33.20;83.50;;;;;;5034245;28;20103;-66
2022/05/29 07:11:30;;;;;;;22.75;11.88;;;33.50;85.30;;;;;;5047548;28;20021;-66
2022/05/29 07:13:58;;;;;;;20.70;12.17;;;33.70;83.00;;;;;;5044613;28;20017;-66
2022/05/29 07:16:25;;;;;;;16.65;9.98;;;33.80;83.90;;;;;;5049814;28;20052;-66
2022/05/29 07:18:54;;;;;;;17.55;9.90;;;33.90;82.00;;;;;;5048799;28;20025;-67
2022/05/29 07:21:22;;;;;;;18.05;12.60;;;33.90;82.80;;;;;;5056006;28;20033;-67
2022/05/29 07:23:49;;;;;;;15.43;10.80;;;34.00;83.60;;;;;;5046280;28;20018;-66
2022/05/29 07:26:16;;;;;;;18.77;10.10;;;34.00;82.00;;;;;;5048090;28;20025;-66
2022/05/29 07:28:43;;;;;;;21.20;10.18;;;34.00;81.00;;;;;;5040498;28;20079;-66
2022/05/29 07:31:10;;;;;;;17.85;10.20;;;34.00;80.90;;;;;;5054659;28;20509;-65
2022/05/29 07:33:38;;;;;;;27.10;17.48;;;33.90;80.90;;;;;;5049846;28;20493;-65
2022/05/29 07:36:09;;;;;;;18.73;10.93;;;33.90;81.00;;;;;;5042621;28;20962;-65
2022/05/29 07:38:37;;;;;;;16.30;9.70;;;34.00;81.00;;;;;;5044642;28;20021;-66
2022/05/29 07:43:18;;;;;;;20.08;13.48;;;34.00;81.80;;;;;;5038580;28;20028;-66
2022/05/29 07:43:52;;;;;;;33.58;23.45;;;34.00;81.00;;;;;;5044715;28;20029;-65
2022/05/29 07:46:19;;;;;;;17.80;10.05;;;34.10;81.00;;;;;;5050299;28;20505;-65
2022/05/29 07:48:46;;;;;;;14.13;9.52;;;34.10;80.40;;;;;;5039147;28;20385;-64
2022/05/29 07:51:13;;;;;;;16.45;9.95;;;34.10;80.00;;;;;;5038332;28;20029;-64
2022/05/29 07:53:39;;;;;;;23.92;15.52;;;34.10;78.70;;;;;;5035595;28;20024;-64
2022/05/29 07:56:07;;;;;;;29.45;16.73;;;34.10;80.70;;;;;;5048449;28;20017;-63
2022/05/29 07:58:38;;;;;;;64.10;49.40;;;34.10;82.00;;;;;;5038704;28;20508;-65
2022/05/29 08:01:05;;;;;;;56.10;41.65;;;34.00;80.50;;;;;;5050785;28;20031;-64
2022/05/29 08:03:32;;;;;;;26.55;19.45;;;33.90;82.30;;;;;;5039423;28;20040;-64
2022/05/29 08:05:59;;;;;;;28.48;16.52;;;33.90;79.80;;;;;;5044109;28;20026;-64
2022/05/29 08:08:29;;;;;;;32.53;20.48;;;33.80;81.30;;;;;;5045095;28;20029;-65
2022/05/29 08:10:56;;;;;;;42.97;31.65;;;33.60;81.80;;;;;;5043236;28;20537;-64
2022/05/29 08:13:23;;;;;;;24.65;16.13;;;33.50;79.80;;;;;;5039477;28;20109;-64
2022/05/29 08:15:51;;;;;;;45.28;27.92;;;33.50;79.80;;;;;;5047811;28;20416;-64
2022/05/29 08:18:18;;;;;;;48.25;27.40;;;33.40;80.70;;;;;;5045944;28;20108;-63
2022/05/29 08:20:44;;;;;;;37.72;21.00;;;33.30;82.50;;;;;;5054946;28;20024;-64
2022/05/29 08:23:11;;;;;;;35.47;20.83;;;33.30;81.60;;;;;;5040446;28;20156;-64
2022/05/29 08:31:00;;;;;;;46.10;30.17;;;33.10;81.50;;;;;;5042309;28;20032;-63
2022/05/29 08:33:31;;;;;;;42.75;28.95;;;33.10;82.70;;;;;;5044711;28;20013;-63
2022/05/29 08:36:03;;;;;;;37.23;25.53;;;33.10;83.00;;;;;;5043578;28;20036;-64
2022/05/29 08:38:31;;;;;;;37.15;22.08;;;33.00;82.20;;;;;;5045068;28;20395;-65
2022/05/29 08:41:03;;;;;;;31.25;18.20;;;33.00;83.10;;;;;;5043196;28;20013;-65
2022/05/29 08:43:35;;;;;;;36.38;22.27;;;33.00;83.40;;;;;;5044175;28;20024;-64
2022/05/29 08:46:24;;;;;;;27.13;15.98;;;33.00;82.90;;;;;;5042983;28;20132;-64
2022/05/29 08:48:53;;;;;;;35.47;26.35;;;32.90;83.30;;;;;;5043900;28;20444;-64
2022/05/29 08:51:34;;;;;;;60.40;41.95;;;32.90;84.10;;;;;;5044410;28;20033;-65
2022/05/29 08:54:11;;;;;;;27.08;17.70;;;32.80;84.00;;;;;;5043184;28;20103;-64
2022/05/29 08:56:46;;;;;;;57.42;45.85;;;32.80;83.70;;;;;;5044376;28;20028;-64
2022/05/29 08:59:12;;;;;;;51.88;42.65;;;32.80;84.00;;;;;;5043121;28;20032;-64
2022/05/29 09:02:00;;;;;;;41.95;32.30;;;32.80;83.80;;;;;;5044075;28;20367;-64
2022/05/29 09:04:34;;;;;;;33.70;22.35;;;32.90;83.90;;;;;;5044342;28;20385;-64
2022/05/29 09:07:04;;;;;;;35.58;27.38;;;32.80;83.80;;;;;;5043057;28;20108;-63
2022/05/29 09:09:37;;;;;;;29.20;18.60;;;32.90;83.50;;;;;;5043593;28;20021;-64
2022/05/29 09:12:16;;;;;;;40.63;23.88;;;32.80;84.50;;;;;;5042784;28;20026;-63
2022/05/29 09:14:55;;;;;;;43.35;25.90;;;32.80;83.50;;;;;;5043516;28;20016;-63
2022/05/29 09:17:23;;;;;;;31.00;18.25;;;32.80;82.40;;;;;;5042861;28;20025;-63
2022/05/29 09:19:56;;;;;;;34.10;18.67;;;32.80;82.50;;;;;;5042780;28;20022;-63
2022/05/29 09:22:31;;;;;;;33.47;21.08;;;32.70;83.50;;;;;;5042898;28;20028;-63
2022/05/29 09:25:26;;;;;;;42.30;24.15;;;32.80;85.40;;;;;;5044273;28;20036;-63
2022/05/29 09:27:53;;;;;;;42.08;26.63;;;32.80;85.40;;;;;;5042468;28;20044;-63
2022/05/29 09:30:20;;;;;;;53.50;33.20;;;32.90;83.20;;;;;;5044386;28;20033;-64
2022/05/29 09:32:54;;;;;;;52.78;27.20;;;32.90;82.10;;;;;;5047420;28;20075;-68
2022/05/29 09:35:25;;;;;;;36.10;22.88;;;32.90;83.50;;;;;;5045942;28;20466;-66
2022/05/29 09:37:54;;;;;;;40.83;24.42;;;32.90;84.00;;;;;;5044711;28;20390;-65
2022/05/29 09:40:36;;;;;;;35.08;24.10;;;32.90;82.40;;;;;;5045698;28;20112;-66
2022/05/29 09:43:23;;;;;;;32.33;22.20;;;32.90;82.60;;;;;;5044248;28;20029;-67
2022/05/29 09:45:51;;;;;;;59.88;41.55;;;32.80;83.80;;;;;;5043356;28;20040;-65
2022/05/29 09:51:28;;;;;;;70.82;59.03;;;32.90;83.00;;;;;;5041991;28;20036;-63
2022/05/29 09:54:00;;;;;;;52.30;34.25;;;32.90;83.30;;;;;;5045422;28;20116;-63
2022/05/29 09:56:35;;;;;;;48.92;32.15;;;32.80;82.40;;;;;;5044263;28;20024;-64
2022/05/29 09:59:11;;;;;;;47.75;32.67;;;32.80;83.90;;;;;;5042467;28;20029;-65
2022/05/29 10:01:45;;;;;;;44.65;24.88;;;32.80;84.20;;;;;;5048855;28;20064;-65
2022/05/29 10:04:22;;;;;;;37.40;23.58;;;32.80;84.30;;;;;;5044828;28;20056;-66
2022/05/29 10:06:56;;;;;;;36.08;26.98;;;32.80;83.50;;;;;;5047555;28;20029;-64
2022/05/29 10:09:26;;;;;;;67.22;52.13;;;32.80;85.00;;;;;;5048890;28;20025;-65
2022/05/29 10:11:58;;;;;;;109.82;84.85;;;32.90;83.20;;;;;;5046218;28;20044;-64
2022/05/29 10:14:38;;;;;;;75.45;57.92;;;32.80;84.00;;;;;;5047659;28;20033;-64
2022/05/29 10:17:14;;;;;;;58.92;38.50;;;32.90;85.30;;;;;;5046200;28;20044;-64
2022/05/29 10:19:45;;;;;;;40.92;28.10;;;32.80;85.50;;;;;;5049631;28;20035;-63
2022/05/29 10:22:21;;;;;;;44.65;28.85;;;32.80;85.80;;;;;;5042659;28;20025;-63
2022/05/29 10:24:48;;;;;;;58.25;38.58;;;32.80;86.10;;;;;;5043519;28;20033;-66
2022/05/29 10:27:35;;;;;;;47.65;33.75;;;32.80;85.40;;;;;;5045503;28;20110;-65
2022/05/29 10:30:26;;;;;;;47.88;31.25;;;32.80;86.00;;;;;;5041816;28;20049;-65
2022/05/29 10:33:04;;;;;;;50.43;34.23;;;32.80;86.80;;;;;;5042754;28;20021;-65
2022/05/29 10:35:35;;;;;;;50.65;33.28;;;32.80;86.80;;;;;;5046092;28;20037;-65
2022/05/29 10:38:22;;;;;;;67.25;44.63;;;32.80;86.60;;;;;;5043081;28;20037;-65
2022/05/29 10:40:52;;;;;;;83.75;55.97;;;32.80;87.10;;;;;;5045241;28;20378;-67
2022/05/29 10:43:38;;;;;;;111.07;69.45;;;32.70;87.40;;;;;;5044362;28;20030;-66
2022/05/29 10:46:12;;;;;;;199.38;117.82;;;32.70;88.20;;;;;;5043112;28;20086;-62
2022/05/29 10:48:51;;;;;;;148.80;90.68;;;32.70;88.30;;;;;;5050027;28;20035;-61
2022/05/29 10:51:21;;;;;;;180.23;118.93;;;32.60;88.10;;;;;;5050383;28;20033;-62
2022/05/29 10:53:52;;;;;;;191.88;130.13;;;32.60;88.30;;;;;;5051873;28;20518;-62
2022/05/29 10:56:37;;;;;;;209.65;145.38;;;32.60;88.00;;;;;;5052119;28;20104;-62
2022/05/29 10:59:22;;;;;;;185.57;135.15;;;32.50;87.70;;;;;;5047979;28;20044;-61
2022/05/29 11:05:20;;;;;;;237.70;128.98;;;32.40;88.00;;;;;;4935081;29;20493;-62
2022/05/29 11:07:55;;;;;;;307.13;169.57;;;32.40;89.10;;;;;;4932940;29;20044;-62
2022/05/29 11:10:49;;;;;;;343.70;192.70;;;32.40;89.50;;;;;;4934088;29;20035;-61
2022/05/29 11:13:18;;;;;;;523.10;341.75;;;32.40;89.50;;;;;;4933943;29;20031;-62
2022/05/29 11:16:21;;;;;;;470.88;289.15;;;32.40;90.00;;;;;;4933530;29;20040;-62
2022/05/29 11:18:55;;;;;;;325.55;183.65;;;32.40;90.10;;;;;;4886804;29;20439;-62
2022/05/29 11:21:33;;;;;;;328.52;192.48;;;32.40;90.00;;;;;;4886364;29;20033;-62
2022/05/29 11:24:28;;;;;;;345.27;211.27;;;32.30;90.30;;;;;;4883908;29;20033;-61
2022/05/29 11:27:08;;;;;;;406.15;244.68;;;32.30;90.60;;;;;;4884067;29;21135;-62
2022/05/29 11:29:45;;;;;;;524.08;351.23;;;32.20;90.70;;;;;;4887750;29;20068;-61
2022/05/29 11:32:27;;;;;;;399.27;252.15;;;32.20;90.80;;;;;;4892856;29;20035;-63
2022/05/29 11:35:04;;;;;;;337.48;199.00;;;32.20;91.00;;;;;;4886050;29;20037;-59
2022/05/29 11:37:34;;;;;;;275.25;165.20;;;32.20;91.00;;;;;;4890458;29;20097;-61
2022/05/29 11:40:26;;;;;;;297.98;180.07;;;32.10;91.20;;;;;;4892821;29;20099;-61
2022/05/29 11:43:07;;;;;;;340.55;210.88;;;32.00;91.60;;;;;;4910505;29;20409;-63
2022/05/29 11:51:43;;;;;;;332.75;206.82;;;31.90;92.10;;;;;;4916776;29;20051;-61
2022/05/29 11:54:10;;;;;;;347.58;216.20;;;31.90;92.40;;;;;;4923363;29;20036;-62
2022/05/29 11:56:49;;;;;;;319.92;199.00;;;31.90;92.50;;;;;;4956417;28;20046;-61
2022/05/29 11:59:42;;;;;;;339.00;207.05;;;31.80;92.70;;;;;;4966841;28;20078;-61
2022/05/29 12:02:33;;;;;;;312.60;190.45;;;31.80;92.70;;;;;;4962097;28;20027;-62
2022/05/29 12:05:07;;;;;;;297.90;184.77;;;31.80;92.70;;;;;;4957994;28;20512;-62
2022/05/29 12:07:42;;;;;;;310.33;197.73;;;31.80;93.00;;;;;;4965955;28;20077;-61
2022/05/29 12:10:24;;;;;;;318.80;205.77;;;31.80;93.00;;;;;;4966257;28;20485;-59
2022/05/29 12:13:01;;;;;;;314.63;200.48;;;31.80;93.40;;;;;;4963686;28;20283;-60
2022/05/29 12:15:31;;;;;;;292.52;174.60;;;31.80;93.20;;;;;;4966999;28;20035;-61
2022/05/29 12:18:04;;;;;;;277.30;183.80;;;31.80;93.20;;;;;;4967896;28;20054;-61
2022/05/29 12:20:34;;;;;;;303.23;202.10;;;31.70;93.50;;;;;;5028572;28;20040;-62
2022/05/29 12:23:26;;;;;;;325.23;214.00;;;31.60;93.80;;;;;;5047095;28;20474;-61
2022/05/29 12:25:57;;;;;;;312.02;202.82;;;31.60;94.20;;;;;;4984660;28;20446;-62
2022/05/29 12:28:48;;;;;;;307.30;196.88;;;31.60;93.70;;;;;;4985499;28;20623;-61
2022/05/29 12:31:23;;;;;;;296.13;193.75;;;31.50;93.40;;;;;;4989846;28;20081;-61
2022/05/29 12:33:50;;;;;;;276.33;184.52;;;31.50;93.40;;;;;;4985715;28;20023;-62
2022/05/29 12:36:47;;;;;;;267.95;173.98;;;31.50;93.60;;;;;;4984731;28;20026;-62
2022/05/29 12:39:21;;;;;;;310.42;198.70;;;31.50;93.70;;;;;;4982246;28;20046;-62
2022/05/29 12:42:17;;;;;;;309.20;205.25;;;31.50;93.70;;;;;;4982257;28;20604;-61
2022/05/29 12:45:15;;;;;;;322.00;208.50;;;31.40;93.50;;;;;;4983198;28;20031;-63
2022/05/29 12:48:11;;;;;;;219.80;138.20;;;31.30;94.20;;;;;;4982334;28;20057;-60
2022/05/29 12:50:45;;;;;;;194.50;121.20;;;31.30;94.10;;;;;;4981052;28;20462;-59
2022/05/29 12:53:24;;;;;;;191.50;121.93;;;31.20;94.00;;;;;;4983429;28;20412;-61
2022/05/29 12:56:19;;;;;;;184.15;119.75;;;31.20;94.30;;;;;;4998553;28;20037;-61
2022/05/29 12:59:06;;;;;;;174.85;114.03;;;31.30;94.20;;;;;;5044576;28;20029;-62
2022/05/29 13:01:50;;;;;;;118.50;75.53;;;31.20;94.00;;;;;;5043815;28;20033;-61
2022/05/29 13:04:47;;;;;;;111.68;70.80;;;31.10;93.20;;;;;;5046263;28;20020;-61
2022/05/29 13:07:27;;;;;;;84.55;53.65;;;31.00;93.70;;;;;;5043888;28;20063;-60
2022/05/29 13:09:59;;;;;;;69.85;42.58;;;30.90;93.40;;;;;;5047571;28;20562;-61
2022/05/29 13:12:35;;;;;;;65.82;38.90;;;30.80;93.30;;;;;;5045209;28;20067;-60
2022/05/29 13:15:06;;;;;;;88.80;57.63;;;30.80;93.20;;;;;;5046597;28;20033;-61
2022/05/29 13:17:35;;;;;;;70.20;44.38;;;30.80;93.50;;;;;;5043524;28;20111;-61
2022/05/29 13:20:11;;;;;;;78.28;59.38;;;30.70;93.20;;;;;;5047110;28;20025;-61
2022/05/29 13:22:49;;;;;;;98.15;68.28;;;30.70;93.60;;;;;;5047081;28;20029;-63
2022/05/29 13:25:20;;;;;;;73.13;43.13;;;30.70;94.10;;;;;;5041872;28;20059;-61
2022/05/29 13:27:47;;;;;;;49.50;30.15;;;30.70;94.20;;;;;;5043740;28;20142;-65